PWSweather.com
Personal Weather Stations
Station Observations
PWSTHORN2
Thornton, Nh Usa, Thornton, NH 03285

Thornton, Nh UsaThornton, NH 03285

Lat: 43.8870699, Lon: -71.6632763

Elevation: 640

Station Type: Ambient WS 2080

Latest ConditionsUpdated 5:20:01 PM EDT Thursday, Oct 18, 2018
Currently Today's Max Today's Min Today's Average
Temperature 39.0°F3.9°C 41.0°F5.0°C 32.4°F0.2°C 35.6°F2.0°C
Dew Point 23.8°F-4.6°C 25.6°F-3.6°C 17.6°F-8.0°C 20.6°F-6.3°C
Winds 9.8 mph SE15.8 kmh SE 25.1 mph -40.4 kmh - - 12.1 mph 19.5 kmh
Wind Gusts 25.9 mph41.7 kmh 34.9 mph56.2 kmh - -
Humidity 54% 54% 54% 54%
Pressure 29.77 in1008.1 mb 29.77 in1008.1 mb 29.51 in999.3 mb -
Hour Temp Dew Point Humidity Winds Wind Gusts Pressure Precip Precip Rate Daily Precip Total
05:20 PM 39.0°F3.9°C 23.8°F-4.6°C 54% 9.8 mph SE15.8 kmh SE 25.9 mph41.7 kmh 29.77 in1008.1 mb 0.00 in0.0 mm 0.00 in0.0 mm 0.00 in0.0 mm
05:15 PM 39.2°F4.0°C 24.0°F-4.4°C 54% 15.9 mph ESE25.6 kmh ESE 25.9 mph41.7 kmh 29.77 in1008.1 mb 0.00 in0.0 mm 0.00 in0.0 mm 0.00 in0.0 mm
05:10 PM 39.7°F4.3°C 24.5°F-4.2°C 54% 6.9 mph E11.1 kmh E 16.8 mph27.0 kmh 29.77 in1008.1 mb 0.00 in0.0 mm 0.00 in0.0 mm 0.00 in0.0 mm
05:05 PM 40.1°F4.5°C 24.8°F-4.0°C 54% 6.9 mph E11.1 kmh E 13.6 mph21.9 kmh 29.77 in1008.1 mb 0.00 in0.0 mm 0.00 in0.0 mm 0.00 in0.0 mm
05:00 PM 40.3°F4.6°C 25.0°F-3.9°C 54% 7.6 mph E12.2 kmh E 13.6 mph21.9 kmh 29.77 in1008.1 mb 0.00 in0.0 mm 0.00 in0.0 mm 0.00 in0.0 mm
04:55 PM 40.1°F4.5°C 24.8°F-4.0°C 54% 6.9 mph ESE11.1 kmh ESE 15.9 mph25.6 kmh 29.76 in1007.8 mb 0.00 in0.0 mm 0.00 in0.0 mm 0.00 in0.0 mm
04:50 PM 39.7°F4.3°C 24.5°F-4.2°C 54% 7.6 mph SE12.2 kmh SE 15.9 mph25.6 kmh 29.77 in1008.1 mb 0.00 in0.0 mm 0.00 in0.0 mm 0.00 in0.0 mm
04:45 PM 39.9°F4.4°C 24.6°F-4.1°C 54% 6.9 mph SE11.1 kmh SE 14.5 mph23.3 kmh 29.77 in1008.1 mb 0.00 in0.0 mm 0.00 in0.0 mm 0.00 in0.0 mm
04:40 PM 40.3°F4.6°C 25.0°F-3.9°C 54% 9.8 mph SE15.8 kmh SE 24.4 mph39.3 kmh 29.77 in1008.1 mb 0.00 in0.0 mm 0.00 in0.0 mm 0.00 in0.0 mm
04:35 PM 40.1°F4.5°C 24.8°F-4.0°C 54% 8.3 mph SSE13.4 kmh SSE 24.4 mph39.3 kmh 29.77 in1008.1 mb 0.00 in0.0 mm 0.00 in0.0 mm 0.00 in0.0 mm
04:30 PM 40.6°F4.8°C 25.3°F-3.7°C 54% 19.0 mph SSW30.6 kmh SSW 24.4 mph39.3 kmh 29.76 in1007.8 mb 0.00 in0.0 mm 0.00 in0.0 mm 0.00 in0.0 mm
04:25 PM 41.0°F5.0°C 25.6°F-3.6°C 54% 11.4 mph NE18.3 kmh NE 20.6 mph33.2 kmh 29.76 in1007.8 mb 0.00 in0.0 mm 0.00 in0.0 mm 0.00 in0.0 mm
04:20 PM 40.8°F4.9°C 25.5°F-3.6°C 54% 9.8 mph E15.8 kmh E 20.6 mph33.2 kmh 29.76 in1007.8 mb 0.00 in0.0 mm 0.00 in0.0 mm 0.00 in0.0 mm
04:15 PM 40.3°F4.6°C 25.0°F-3.9°C 54% 14.5 mph ESE23.3 kmh ESE 23.5 mph37.8 kmh 29.76 in1007.8 mb 0.00 in0.0 mm 0.00 in0.0 mm 0.00 in0.0 mm
04:10 PM 39.9°F4.4°C 24.6°F-4.1°C 54% 9.8 mph SE15.8 kmh SE 25.9 mph41.7 kmh 29.77 in1008.1 mb 0.00 in0.0 mm 0.00 in0.0 mm 0.00 in0.0 mm
04:05 PM 39.7°F4.3°C 24.5°F-4.2°C 54% 9.8 mph SSE15.8 kmh SSE 26.6 mph42.8 kmh 29.76 in1007.8 mb 0.00 in0.0 mm 0.00 in0.0 mm 0.00 in0.0 mm
04:00 PM 39.6°F4.2°C 24.3°F-4.3°C 54% 18.3 mph SE29.5 kmh SE 26.6 mph42.8 kmh 29.76 in1007.8 mb 0.00 in0.0 mm 0.00 in0.0 mm 0.00 in0.0 mm
03:55 PM 39.7°F4.3°C 24.5°F-4.2°C 54% 11.4 mph S18.3 kmh S 25.9 mph41.7 kmh 29.76 in1007.8 mb 0.00 in0.0 mm 0.00 in0.0 mm 0.00 in0.0 mm
03:50 PM 39.9°F4.4°C 24.6°F-4.1°C 54% 10.7 mph SSW17.2 kmh SSW 19.7 mph31.7 kmh 29.76 in1007.8 mb 0.00 in0.0 mm 0.00 in0.0 mm 0.00 in0.0 mm
03:45 PM 39.2°F4.0°C 24.0°F-4.4°C 54% 7.6 mph SSW12.2 kmh SSW 19.0 mph30.6 kmh 29.76 in1007.8 mb 0.00 in0.0 mm 0.00 in0.0 mm 0.00 in0.0 mm
03:40 PM 38.7°F3.7°C 23.5°F-4.7°C 54% 9.2 mph SW14.8 kmh SW 21.3 mph34.3 kmh 29.76 in1007.8 mb 0.00 in0.0 mm 0.00 in0.0 mm 0.00 in0.0 mm
03:35 PM 38.8°F3.8°C 23.6°F-4.7°C 54% 10.7 mph SSW17.2 kmh SSW 21.3 mph34.3 kmh 29.77 in1008.1 mb 0.00 in0.0 mm 0.00 in0.0 mm 0.00 in0.0 mm
03:30 PM 38.5°F3.6°C 23.3°F-4.8°C 54% 15.9 mph SSE25.6 kmh SSE 22.8 mph36.7 kmh 29.76 in1007.8 mb 0.00 in0.0 mm 0.00 in0.0 mm 0.00 in0.0 mm
03:25 PM 37.4°F3.0°C 22.3°F-5.4°C 54% 8.3 mph SE13.4 kmh SE 22.8 mph36.7 kmh 29.76 in1007.8 mb 0.00 in0.0 mm 0.00 in0.0 mm 0.00 in0.0 mm
03:20 PM 37.0°F2.8°C 22.0°F-5.6°C 54% 13.0 mph SE20.9 kmh SE 22.8 mph36.7 kmh 29.76 in1007.8 mb 0.00 in0.0 mm 0.00 in0.0 mm 0.00 in0.0 mm
03:15 PM 37.2°F2.9°C 22.1°F-5.5°C 54% 11.4 mph SE18.3 kmh SE 24.4 mph39.3 kmh 29.77 in1008.1 mb 0.00 in0.0 mm 0.00 in0.0 mm 0.00 in0.0 mm
03:10 PM 37.4°F3.0°C 22.3°F-5.4°C 54% 15.2 mph SE24.5 kmh SE 28.2 mph45.4 kmh 29.77 in1008.1 mb 0.00 in0.0 mm 0.00 in0.0 mm 0.00 in0.0 mm
03:05 PM 37.8°F3.2°C 22.6°F-5.2°C 54% 12.1 mph SE19.5 kmh SE 32.7 mph52.6 kmh 29.77 in1008.1 mb 0.00 in0.0 mm 0.00 in0.0 mm 0.00 in0.0 mm
03:00 PM 38.8°F3.8°C 23.6°F-4.7°C 54% 22.1 mph SE35.6 kmh SE 32.7 mph52.6 kmh 29.76 in1007.8 mb 0.00 in0.0 mm 0.00 in0.0 mm 0.00 in0.0 mm
02:55 PM 39.0°F3.9°C 23.8°F-4.6°C 54% 16.8 mph SSE27.0 kmh SSE 28.9 mph46.5 kmh 29.76 in1007.8 mb 0.00 in0.0 mm 0.00 in0.0 mm 0.00 in0.0 mm
02:50 PM 39.4°F4.1°C 24.1°F-4.4°C 54% 13.0 mph SE20.9 kmh SE 28.9 mph46.5 kmh 29.77 in1008.1 mb 0.00 in0.0 mm 0.00 in0.0 mm 0.00 in0.0 mm
02:45 PM 38.7°F3.7°C 23.5°F-4.7°C 54% 21.3 mph SE34.3 kmh SE 28.9 mph46.5 kmh 29.76 in1007.8 mb 0.00 in0.0 mm 0.00 in0.0 mm 0.00 in0.0 mm
02:40 PM 38.5°F3.6°C 23.3°F-4.8°C 54% 19.7 mph SE31.7 kmh SE 28.2 mph45.4 kmh 29.76 in1007.8 mb 0.00 in0.0 mm 0.00 in0.0 mm 0.00 in0.0 mm
02:35 PM 39.4°F4.1°C 24.1°F-4.4°C 54% 21.3 mph SE34.3 kmh SE 34.2 mph55.0 kmh 29.76 in1007.8 mb 0.00 in0.0 mm 0.00 in0.0 mm 0.00 in0.0 mm
02:30 PM 38.7°F3.7°C 23.5°F-4.7°C 54% 13.6 mph SE21.9 kmh SE 34.2 mph55.0 kmh 29.76 in1007.8 mb 0.00 in0.0 mm 0.00 in0.0 mm 0.00 in0.0 mm
02:25 PM 38.7°F3.7°C 23.5°F-4.7°C 54% 22.1 mph SE35.6 kmh SE 34.2 mph55.0 kmh 29.75 in1007.5 mb 0.00 in0.0 mm 0.00 in0.0 mm 0.00 in0.0 mm
02:20 PM 38.7°F3.7°C 23.5°F-4.7°C 54% 15.2 mph SE24.5 kmh SE 32.0 mph51.5 kmh 29.76 in1007.8 mb 0.00 in0.0 mm 0.00 in0.0 mm 0.00 in0.0 mm
02:15 PM 39.0°F3.9°C 23.8°F-4.6°C 54% 19.7 mph SE31.7 kmh SE 28.2 mph45.4 kmh 29.76 in1007.8 mb 0.00 in0.0 mm 0.00 in0.0 mm 0.00 in0.0 mm
02:10 PM 39.4°F4.1°C 24.1°F-4.4°C 54% 13.6 mph SE21.9 kmh SE 25.1 mph40.4 kmh 29.76 in1007.8 mb 0.00 in0.0 mm 0.00 in0.0 mm 0.00 in0.0 mm
02:05 PM 39.4°F4.1°C 24.1°F-4.4°C 54% 13.0 mph SE20.9 kmh SE 28.2 mph45.4 kmh 29.76 in1007.8 mb 0.00 in0.0 mm 0.00 in0.0 mm 0.00 in0.0 mm
02:00 PM 38.3°F3.5°C 23.1°F-4.9°C 54% 16.8 mph SE27.0 kmh SE 32.0 mph51.5 kmh 29.76 in1007.8 mb 0.00 in0.0 mm 0.00 in0.0 mm 0.00 in0.0 mm
01:55 PM 38.3°F3.5°C 23.1°F-4.9°C 54% 23.5 mph SE37.8 kmh SE 34.9 mph56.2 kmh 29.75 in1007.5 mb 0.00 in0.0 mm 0.00 in0.0 mm 0.00 in0.0 mm
01:50 PM 38.1°F3.4°C 23.0°F-5.0°C 54% 25.1 mph SE40.4 kmh SE 34.9 mph56.2 kmh 29.76 in1007.8 mb 0.00 in0.0 mm 0.00 in0.0 mm 0.00 in0.0 mm
01:45 PM 38.1°F3.4°C 23.0°F-5.0°C 54% 19.0 mph SE30.6 kmh SE 34.2 mph55.0 kmh 29.75 in1007.5 mb 0.00 in0.0 mm 0.00 in0.0 mm 0.00 in0.0 mm
01:40 PM 38.3°F3.5°C 23.1°F-4.9°C 54% 15.9 mph SE25.6 kmh SE 29.8 mph48.0 kmh 29.75 in1007.5 mb 0.00 in0.0 mm 0.00 in0.0 mm 0.00 in0.0 mm
01:35 PM 38.8°F3.8°C 23.6°F-4.7°C 54% 19.0 mph SE30.6 kmh SE 26.6 mph42.8 kmh 29.76 in1007.8 mb 0.00 in0.0 mm 0.00 in0.0 mm 0.00 in0.0 mm
01:30 PM 39.2°F4.0°C 24.0°F-4.4°C 54% 16.8 mph SE27.0 kmh SE 26.6 mph42.8 kmh 29.76 in1007.8 mb 0.00 in0.0 mm 0.00 in0.0 mm 0.00 in0.0 mm
01:25 PM 38.5°F3.6°C 23.3°F-4.8°C 54% 12.1 mph SE19.5 kmh SE 34.9 mph56.2 kmh 29.76 in1007.8 mb 0.00 in0.0 mm 0.00 in0.0 mm 0.00 in0.0 mm
01:20 PM 37.9°F3.3°C 22.8°F-5.1°C 54% 16.8 mph SE27.0 kmh SE 34.9 mph56.2 kmh 29.75 in1007.5 mb 0.00 in0.0 mm 0.00 in0.0 mm 0.00 in0.0 mm
01:15 PM 38.1°F3.4°C 23.0°F-5.0°C 54% 10.7 mph SE17.2 kmh SE 33.6 mph54.1 kmh 29.75 in1007.5 mb 0.00 in0.0 mm 0.00 in0.0 mm 0.00 in0.0 mm
01:10 PM 37.9°F3.3°C 22.8°F-5.1°C 54% 20.6 mph SE33.2 kmh SE 33.6 mph54.1 kmh 29.75 in1007.5 mb 0.00 in0.0 mm 0.00 in0.0 mm 0.00 in0.0 mm
01:05 PM 37.8°F3.2°C 22.6°F-5.2°C 54% 19.0 mph SE30.6 kmh SE 32.7 mph52.6 kmh 29.75 in1007.5 mb 0.00 in0.0 mm 0.00 in0.0 mm 0.00 in0.0 mm
01:00 PM 38.3°F3.5°C 23.1°F-4.9°C 54% 21.3 mph S34.3 kmh S 30.4 mph48.9 kmh 29.75 in1007.5 mb 0.00 in0.0 mm 0.00 in0.0 mm 0.00 in0.0 mm
12:55 PM 38.3°F3.5°C 23.1°F-4.9°C 54% 7.6 mph SSE12.2 kmh SSE 27.3 mph43.9 kmh 29.75 in1007.5 mb 0.00 in0.0 mm 0.00 in0.0 mm 0.00 in0.0 mm
12:50 PM 37.9°F3.3°C 22.8°F-5.1°C 54% 11.4 mph SE18.3 kmh SE 29.8 mph48.0 kmh 29.75 in1007.5 mb 0.00 in0.0 mm 0.00 in0.0 mm 0.00 in0.0 mm
12:45 PM 37.6°F3.1°C 22.5°F-5.3°C 54% 18.3 mph SE29.5 kmh SE 29.8 mph48.0 kmh 29.76 in1007.8 mb 0.00 in0.0 mm 0.00 in0.0 mm 0.00 in0.0 mm
12:40 PM 38.1°F3.4°C 23.0°F-5.0°C 54% 10.7 mph SSE17.2 kmh SSE 31.1 mph50.1 kmh 29.76 in1007.8 mb 0.00 in0.0 mm 0.00 in0.0 mm 0.00 in0.0 mm
12:30 PM 37.6°F3.1°C 22.5°F-5.3°C 54% 9.2 mph SE14.8 kmh SE 25.1 mph40.4 kmh 29.76 in1007.8 mb 0.00 in0.0 mm 0.00 in0.0 mm 0.00 in0.0 mm
12:20 PM 36.7°F2.6°C 21.6°F-5.8°C 54% 10.7 mph SE17.2 kmh SE 33.6 mph54.1 kmh 29.76 in1007.8 mb 0.00 in0.0 mm 0.00 in0.0 mm 0.00 in0.0 mm
12:15 PM 36.5°F2.5°C 21.5°F-5.8°C 54% 22.1 mph SE35.6 kmh SE 33.6 mph54.1 kmh 29.76 in1007.8 mb 0.00 in0.0 mm 0.00 in0.0 mm 0.00 in0.0 mm
12:10 PM 37.2°F2.9°C 22.1°F-5.5°C 54% 16.8 mph SSE27.0 kmh SSE 23.5 mph37.8 kmh 29.76 in1007.8 mb 0.00 in0.0 mm 0.00 in0.0 mm 0.00 in0.0 mm
12:05 PM 37.2°F2.9°C 22.1°F-5.5°C 54% 8.3 mph S13.4 kmh S 20.6 mph33.2 kmh 29.77 in1008.1 mb 0.00 in0.0 mm 0.00 in0.0 mm 0.00 in0.0 mm
12:00 PM 36.7°F2.6°C 21.6°F-5.8°C 54% 6.0 mph SE9.7 kmh SE 20.6 mph33.2 kmh 29.77 in1008.1 mb 0.00 in0.0 mm 0.00 in0.0 mm 0.00 in0.0 mm
11:55 AM 36.7°F2.6°C 21.6°F-5.8°C 54% 9.8 mph SE15.8 kmh SE 25.1 mph40.4 kmh 29.76 in1007.8 mb 0.00 in0.0 mm 0.00 in0.0 mm 0.00 in0.0 mm
11:50 AM 36.1°F2.3°C 21.1°F-6.1°C 54% 11.4 mph SE18.3 kmh SE 25.1 mph40.4 kmh 29.77 in1008.1 mb 0.00 in0.0 mm 0.00 in0.0 mm 0.00 in0.0 mm
11:45 AM 36.0°F2.2°C 21.0°F-6.1°C 54% 20.6 mph SE33.2 kmh SE 25.1 mph40.4 kmh 29.77 in1008.1 mb 0.00 in0.0 mm 0.00 in0.0 mm 0.00 in0.0 mm
11:40 AM 36.1°F2.3°C 21.1°F-6.1°C 54% 15.2 mph SE24.5 kmh SE 28.2 mph45.4 kmh 29.77 in1008.1 mb 0.00 in0.0 mm 0.00 in0.0 mm 0.00 in0.0 mm
11:35 AM 36.1°F2.3°C 21.1°F-6.1°C 54% 15.2 mph SE24.5 kmh SE 34.2 mph55.0 kmh 29.77 in1008.1 mb 0.00 in0.0 mm 0.00 in0.0 mm 0.00 in0.0 mm
11:30 AM 36.1°F2.3°C 21.1°F-6.1°C 54% 12.1 mph SE19.5 kmh SE 34.2 mph55.0 kmh 29.77 in1008.1 mb 0.00 in0.0 mm 0.00 in0.0 mm 0.00 in0.0 mm
11:25 AM 35.8°F2.1°C 20.8°F-6.2°C 54% 13.0 mph SE20.9 kmh SE 30.4 mph48.9 kmh 29.77 in1008.1 mb 0.00 in0.0 mm 0.00 in0.0 mm 0.00 in0.0 mm
11:20 AM 36.0°F2.2°C 21.0°F-6.1°C 54% 20.6 mph SE33.2 kmh SE 30.4 mph48.9 kmh 29.77 in1008.1 mb 0.00 in0.0 mm 0.00 in0.0 mm 0.00 in0.0 mm
11:15 AM 35.6°F2.0°C 20.6°F-6.3°C 54% 12.1 mph SE19.5 kmh SE 21.3 mph34.3 kmh 29.77 in1008.1 mb 0.00 in0.0 mm 0.00 in0.0 mm 0.00 in0.0 mm
11:10 AM 34.9°F1.6°C 19.9°F-6.7°C 54% 13.6 mph SE21.9 kmh SE 24.4 mph39.3 kmh 29.76 in1007.8 mb 0.00 in0.0 mm 0.00 in0.0 mm 0.00 in0.0 mm
11:05 AM 34.5°F1.4°C 19.6°F-6.9°C 54% 13.0 mph SE20.9 kmh SE 28.2 mph45.4 kmh 29.76 in1007.8 mb 0.00 in0.0 mm 0.00 in0.0 mm 0.00 in0.0 mm
11:00 AM 34.9°F1.6°C 19.9°F-6.7°C 54% 12.1 mph SSE19.5 kmh SSE 28.2 mph45.4 kmh 29.76 in1007.8 mb 0.00 in0.0 mm 0.00 in0.0 mm 0.00 in0.0 mm
10:55 AM 34.9°F1.6°C 19.9°F-6.7°C 54% 9.2 mph SSE14.8 kmh SSE 29.8 mph48.0 kmh 29.76 in1007.8 mb 0.00 in0.0 mm 0.00 in0.0 mm 0.00 in0.0 mm
10:50 AM 35.1°F1.7°C 20.1°F-6.6°C 54% 6.0 mph SE9.7 kmh SE 32.0 mph51.5 kmh 29.77 in1008.1 mb 0.00 in0.0 mm 0.00 in0.0 mm 0.00 in0.0 mm
10:45 AM 34.7°F1.5°C 19.8°F-6.8°C 54% 13.6 mph SE21.9 kmh SE 32.0 mph51.5 kmh 29.77 in1008.1 mb 0.00 in0.0 mm 0.00 in0.0 mm 0.00 in0.0 mm
10:40 AM 34.2°F1.2°C 19.3°F-7.1°C 54% 22.8 mph SE36.7 kmh SE 32.0 mph51.5 kmh 29.77 in1008.1 mb 0.00 in0.0 mm 0.00 in0.0 mm 0.00 in0.0 mm
10:35 AM 34.7°F1.5°C 19.8°F-6.8°C 54% 19.0 mph SE30.6 kmh SE 28.2 mph45.4 kmh 29.77 in1008.1 mb 0.00 in0.0 mm 0.00 in0.0 mm 0.00 in0.0 mm
10:30 AM 34.5°F1.4°C 19.6°F-6.9°C 54% 10.7 mph SE17.2 kmh SE 19.0 mph30.6 kmh 29.77 in1008.1 mb 0.00 in0.0 mm 0.00 in0.0 mm 0.00 in0.0 mm
10:25 AM 34.3°F1.3°C 19.4°F-7.0°C 54% 11.4 mph SE18.3 kmh SE 31.1 mph50.1 kmh 29.77 in1008.1 mb 0.00 in0.0 mm 0.00 in0.0 mm 0.00 in0.0 mm
10:20 AM 34.5°F1.4°C 19.6°F-6.9°C 54% 6.0 mph SE9.7 kmh SE 31.1 mph50.1 kmh 29.77 in1008.1 mb 0.00 in0.0 mm 0.00 in0.0 mm 0.00 in0.0 mm
10:15 AM 35.2°F1.8°C 20.3°F-6.5°C 54% 9.8 mph SE15.8 kmh SE 29.8 mph48.0 kmh 29.77 in1008.1 mb 0.00 in0.0 mm 0.00 in0.0 mm 0.00 in0.0 mm
10:10 AM 34.3°F1.3°C 19.4°F-7.0°C 54% 11.4 mph SE18.3 kmh SE 29.8 mph48.0 kmh 29.77 in1008.1 mb 0.00 in0.0 mm 0.00 in0.0 mm 0.00 in0.0 mm
10:05 AM 33.8°F1.0°C 18.9°F-7.3°C 54% 4.5 mph SE7.2 kmh SE 26.6 mph42.8 kmh 29.77 in1008.1 mb 0.00 in0.0 mm 0.00 in0.0 mm 0.00 in0.0 mm
10:00 AM 33.8°F1.0°C 18.9°F-7.3°C 54% 4.5 mph SSE7.2 kmh SSE 17.4 mph28.0 kmh 29.77 in1008.1 mb 0.00 in0.0 mm 0.00 in0.0 mm 0.00 in0.0 mm
09:55 AM 33.6°F0.9°C 18.8°F-7.3°C 54% 10.7 mph SE17.2 kmh SE 20.6 mph33.2 kmh 29.77 in1008.1 mb 0.00 in0.0 mm 0.00 in0.0 mm 0.00 in0.0 mm
09:50 AM 33.4°F0.8°C 18.6°F-7.4°C 54% 11.4 mph SSE18.3 kmh SSE 20.6 mph33.2 kmh 29.77 in1008.1 mb 0.00 in0.0 mm 0.00 in0.0 mm 0.00 in0.0 mm
09:45 AM 33.6°F0.9°C 18.8°F-7.3°C 54% 13.6 mph SE21.9 kmh SE 20.6 mph33.2 kmh 29.76 in1007.8 mb 0.00 in0.0 mm 0.00 in0.0 mm 0.00 in0.0 mm
09:40 AM 33.4°F0.8°C 18.6°F-7.4°C 54% 6.0 mph SE9.7 kmh SE 29.8 mph48.0 kmh 29.75 in1007.5 mb 0.00 in0.0 mm 0.00 in0.0 mm 0.00 in0.0 mm
09:35 AM 33.1°F0.6°C 18.3°F-7.6°C 54% 9.8 mph SE15.8 kmh SE 29.8 mph48.0 kmh 29.76 in1007.8 mb 0.00 in0.0 mm 0.00 in0.0 mm 0.00 in0.0 mm
09:30 AM 32.9°F0.5°C 18.1°F-7.7°C 54% 19.0 mph SE30.6 kmh SE 30.4 mph48.9 kmh 29.76 in1007.8 mb 0.00 in0.0 mm 0.00 in0.0 mm 0.00 in0.0 mm
09:25 AM 33.3°F0.7°C 18.4°F-7.6°C 54% 13.0 mph SE20.9 kmh SE 30.4 mph48.9 kmh 29.76 in1007.8 mb 0.00 in0.0 mm 0.00 in0.0 mm 0.00 in0.0 mm
09:20 AM 33.3°F0.7°C 18.4°F-7.6°C 54% 22.1 mph SE35.6 kmh SE 30.4 mph48.9 kmh 29.75 in1007.5 mb 0.00 in0.0 mm 0.00 in0.0 mm 0.00 in0.0 mm
09:15 AM 33.3°F0.7°C 18.4°F-7.6°C 54% 17.4 mph SE28.0 kmh SE 27.3 mph43.9 kmh 29.75 in1007.5 mb 0.00 in0.0 mm 0.00 in0.0 mm 0.00 in0.0 mm
09:10 AM 33.3°F0.7°C 18.4°F-7.6°C 54% 11.4 mph SE18.3 kmh SE 26.6 mph42.8 kmh 29.75 in1007.5 mb 0.00 in0.0 mm 0.00 in0.0 mm 0.00 in0.0 mm
09:05 AM 33.3°F0.7°C 18.4°F-7.6°C 54% 13.6 mph SE21.9 kmh SE 26.6 mph42.8 kmh 29.75 in1007.5 mb 0.00 in0.0 mm 0.00 in0.0 mm 0.00 in0.0 mm
09:00 AM 33.1°F0.6°C 18.3°F-7.6°C 54% 19.0 mph SE30.6 kmh SE 26.6 mph42.8 kmh 29.74 in1007.1 mb 0.00 in0.0 mm 0.00 in0.0 mm 0.00 in0.0 mm
08:55 AM 32.7°F0.4°C 17.9°F-7.8°C 54% 16.8 mph SE27.0 kmh SE 28.2 mph45.4 kmh 29.75 in1007.5 mb 0.00 in0.0 mm 0.00 in0.0 mm 0.00 in0.0 mm
08:50 AM 32.9°F0.5°C 18.1°F-7.7°C 54% 24.4 mph SE39.3 kmh SE 28.2 mph45.4 kmh 29.74 in1007.1 mb 0.00 in0.0 mm 0.00 in0.0 mm 0.00 in0.0 mm
08:45 AM 33.1°F0.6°C 18.3°F-7.6°C 54% 19.7 mph SE31.7 kmh SE 27.3 mph43.9 kmh 29.73 in1006.8 mb 0.00 in0.0 mm 0.00 in0.0 mm 0.00 in0.0 mm
08:40 AM 33.4°F0.8°C 18.6°F-7.4°C 54% 11.4 mph SE18.3 kmh SE 31.1 mph50.1 kmh 29.73 in1006.8 mb 0.00 in0.0 mm 0.00 in0.0 mm 0.00 in0.0 mm
08:35 AM 33.3°F0.7°C 18.4°F-7.6°C 54% 13.6 mph SE21.9 kmh SE 31.1 mph50.1 kmh 29.73 in1006.8 mb 0.00 in0.0 mm 0.00 in0.0 mm 0.00 in0.0 mm
08:30 AM 33.1°F0.6°C 18.3°F-7.6°C 54% 15.2 mph SE24.5 kmh SE 29.8 mph48.0 kmh 29.72 in1006.4 mb 0.00 in0.0 mm 0.00 in0.0 mm 0.00 in0.0 mm
08:25 AM 33.1°F0.6°C 18.3°F-7.6°C 54% 9.8 mph SE15.8 kmh SE 22.8 mph36.7 kmh 29.73 in1006.8 mb 0.00 in0.0 mm 0.00 in0.0 mm 0.00 in0.0 mm
08:20 AM 32.9°F0.5°C 18.1°F-7.7°C 54% 11.4 mph SE18.3 kmh SE 23.5 mph37.8 kmh 29.73 in1006.8 mb 0.00 in0.0 mm 0.00 in0.0 mm 0.00 in0.0 mm
08:15 AM 32.9°F0.5°C 18.1°F-7.7°C 54% 10.7 mph SE17.2 kmh SE 23.5 mph37.8 kmh 29.72 in1006.4 mb 0.00 in0.0 mm 0.00 in0.0 mm 0.00 in0.0 mm
08:10 AM 32.9°F0.5°C 18.1°F-7.7°C 54% 9.8 mph SE15.8 kmh SE 27.3 mph43.9 kmh 29.71 in1006.1 mb 0.00 in0.0 mm 0.00 in0.0 mm 0.00 in0.0 mm
08:05 AM 32.9°F0.5°C 18.1°F-7.7°C 54% 9.2 mph SE14.8 kmh SE 27.3 mph43.9 kmh 29.71 in1006.1 mb 0.00 in0.0 mm 0.00 in0.0 mm 0.00 in0.0 mm
08:00 AM 32.9°F0.5°C 18.1°F-7.7°C 54% 9.2 mph SE14.8 kmh SE 25.1 mph40.4 kmh 29.72 in1006.4 mb 0.00 in0.0 mm 0.00 in0.0 mm 0.00 in0.0 mm
07:55 AM 32.9°F0.5°C 18.1°F-7.7°C 54% 19.7 mph SE31.7 kmh SE 27.3 mph43.9 kmh 29.71 in1006.1 mb 0.00 in0.0 mm 0.00 in0.0 mm 0.00 in0.0 mm
07:50 AM 32.9°F0.5°C 18.1°F-7.7°C 54% 13.0 mph SE20.9 kmh SE 27.3 mph43.9 kmh 29.71 in1006.1 mb 0.00 in0.0 mm 0.00 in0.0 mm 0.00 in0.0 mm
07:45 AM 33.1°F0.6°C 18.3°F-7.6°C 54% 9.8 mph SE15.8 kmh SE 27.3 mph43.9 kmh 29.71 in1006.1 mb 0.00 in0.0 mm 0.00 in0.0 mm 0.00 in0.0 mm
07:40 AM 32.9°F0.5°C 18.1°F-7.7°C 54% 20.6 mph SE33.2 kmh SE 29.8 mph48.0 kmh 29.70 in1005.8 mb 0.00 in0.0 mm 0.00 in0.0 mm 0.00 in0.0 mm
07:35 AM 32.9°F0.5°C 18.1°F-7.7°C 54% 14.5 mph SE23.3 kmh SE 34.2 mph55.0 kmh 29.70 in1005.8 mb 0.00 in0.0 mm 0.00 in0.0 mm 0.00 in0.0 mm
07:30 AM 33.1°F0.6°C 18.3°F-7.6°C 54% 16.8 mph SE27.0 kmh SE 34.2 mph55.0 kmh 29.70 in1005.8 mb 0.00 in0.0 mm 0.00 in0.0 mm 0.00 in0.0 mm
07:25 AM 32.9°F0.5°C 18.1°F-7.7°C 54% 19.0 mph SE30.6 kmh SE 25.1 mph40.4 kmh 29.69 in1005.4 mb 0.00 in0.0 mm 0.00 in0.0 mm 0.00 in0.0 mm
07:20 AM 33.1°F0.6°C 18.3°F-7.6°C 54% 14.5 mph SE23.3 kmh SE 27.3 mph43.9 kmh 29.70 in1005.8 mb 0.00 in0.0 mm 0.00 in0.0 mm 0.00 in0.0 mm
07:15 AM 33.1°F0.6°C 18.3°F-7.6°C 54% 16.8 mph SE27.0 kmh SE 27.3 mph43.9 kmh 29.69 in1005.4 mb 0.00 in0.0 mm 0.00 in0.0 mm 0.00 in0.0 mm
07:10 AM 33.1°F0.6°C 18.3°F-7.6°C 54% 15.2 mph SE24.5 kmh SE 27.3 mph43.9 kmh 29.68 in1005.1 mb 0.00 in0.0 mm 0.00 in0.0 mm 0.00 in0.0 mm
07:05 AM 33.1°F0.6°C 18.3°F-7.6°C 54% 18.3 mph SE29.5 kmh SE 27.3 mph43.9 kmh 29.68 in1005.1 mb 0.00 in0.0 mm 0.00 in0.0 mm 0.00 in0.0 mm
07:00 AM 33.1°F0.6°C 18.3°F-7.6°C 54% 13.0 mph SE20.9 kmh SE 24.4 mph39.3 kmh 29.68 in1005.1 mb 0.00 in0.0 mm 0.00 in0.0 mm 0.00 in0.0 mm
06:55 AM 32.9°F0.5°C 18.1°F-7.7°C 54% 10.7 mph SE17.2 kmh SE 27.3 mph43.9 kmh 29.68 in1005.1 mb 0.00 in0.0 mm 0.00 in0.0 mm 0.00 in0.0 mm
06:50 AM 33.1°F0.6°C 18.3°F-7.6°C 54% 13.6 mph SE21.9 kmh SE 28.2 mph45.4 kmh 29.68 in1005.1 mb 0.00 in0.0 mm 0.00 in0.0 mm 0.00 in0.0 mm
06:45 AM 33.1°F0.6°C 18.3°F-7.6°C 54% 16.8 mph SE27.0 kmh SE 28.2 mph45.4 kmh 29.68 in1005.1 mb 0.00 in0.0 mm 0.00 in0.0 mm 0.00 in0.0 mm
06:40 AM 32.7°F0.4°C 17.9°F-7.8°C 54% 18.3 mph SE29.5 kmh SE 28.2 mph45.4 kmh 29.68 in1005.1 mb 0.00 in0.0 mm 0.00 in0.0 mm 0.00 in0.0 mm
06:35 AM 32.5°F0.3°C 17.8°F-7.9°C 54% 9.8 mph SE15.8 kmh SE 19.7 mph31.7 kmh 29.67 in1004.7 mb 0.00 in0.0 mm 0.00 in0.0 mm 0.00 in0.0 mm
06:30 AM 32.5°F0.3°C 17.8°F-7.9°C 54% 11.4 mph SE18.3 kmh SE 19.7 mph31.7 kmh 29.67 in1004.7 mb 0.00 in0.0 mm 0.00 in0.0 mm 0.00 in0.0 mm
06:25 AM 32.9°F0.5°C 18.1°F-7.7°C 54% 6.0 mph SE9.7 kmh SE 18.3 mph29.5 kmh 29.67 in1004.7 mb 0.00 in0.0 mm 0.00 in0.0 mm 0.00 in0.0 mm
06:20 AM 33.3°F0.7°C 18.4°F-7.6°C 54% 11.4 mph SE18.3 kmh SE 22.1 mph35.6 kmh 29.67 in1004.7 mb 0.00 in0.0 mm 0.00 in0.0 mm 0.00 in0.0 mm
06:15 AM 33.3°F0.7°C 18.4°F-7.6°C 54% 11.4 mph ESE18.3 kmh ESE 22.1 mph35.6 kmh 29.67 in1004.7 mb 0.00 in0.0 mm 0.00 in0.0 mm 0.00 in0.0 mm
06:10 AM 32.9°F0.5°C 18.1°F-7.7°C 54% 10.7 mph ESE17.2 kmh ESE 19.7 mph31.7 kmh 29.66 in1004.4 mb 0.00 in0.0 mm 0.00 in0.0 mm 0.00 in0.0 mm
06:05 AM 32.7°F0.4°C 17.9°F-7.8°C 54% 7.6 mph ESE12.2 kmh ESE 19.7 mph31.7 kmh 29.65 in1004.1 mb 0.00 in0.0 mm 0.00 in0.0 mm 0.00 in0.0 mm
06:00 AM 32.7°F0.4°C 17.9°F-7.8°C 54% 15.2 mph ESE24.5 kmh ESE 24.4 mph39.3 kmh 29.65 in1004.1 mb 0.00 in0.0 mm 0.00 in0.0 mm 0.00 in0.0 mm
05:55 AM 32.9°F0.5°C 18.1°F-7.7°C 54% 9.8 mph SE15.8 kmh SE 30.4 mph48.9 kmh 29.65 in1004.1 mb 0.00 in0.0 mm 0.00 in0.0 mm 0.00 in0.0 mm
05:50 AM 33.1°F0.6°C 18.3°F-7.6°C 54% 11.4 mph SE18.3 kmh SE 30.4 mph48.9 kmh 29.64 in1003.7 mb 0.00 in0.0 mm 0.00 in0.0 mm 0.00 in0.0 mm
05:45 AM 33.1°F0.6°C 18.3°F-7.6°C 54% 16.8 mph SE27.0 kmh SE 27.3 mph43.9 kmh 29.64 in1003.7 mb 0.00 in0.0 mm 0.00 in0.0 mm 0.00 in0.0 mm
05:40 AM 33.3°F0.7°C 18.4°F-7.6°C 54% 13.6 mph SE21.9 kmh SE 27.3 mph43.9 kmh 29.65 in1004.1 mb 0.00 in0.0 mm 0.00 in0.0 mm 0.00 in0.0 mm
05:35 AM 33.3°F0.7°C 18.4°F-7.6°C 54% 20.6 mph SE33.2 kmh SE 27.3 mph43.9 kmh 29.64 in1003.7 mb 0.00 in0.0 mm 0.00 in0.0 mm 0.00 in0.0 mm
05:30 AM 33.3°F0.7°C 18.4°F-7.6°C 54% 14.5 mph SE23.3 kmh SE 24.4 mph39.3 kmh 29.64 in1003.7 mb 0.00 in0.0 mm 0.00 in0.0 mm 0.00 in0.0 mm
05:25 AM 32.9°F0.5°C 18.1°F-7.7°C 54% 13.0 mph SE20.9 kmh SE 21.3 mph34.3 kmh 29.63 in1003.4 mb 0.00 in0.0 mm 0.00 in0.0 mm 0.00 in0.0 mm
05:20 AM 32.5°F0.3°C 17.8°F-7.9°C 54% 15.2 mph SE24.5 kmh SE 21.3 mph34.3 kmh 29.64 in1003.7 mb 0.00 in0.0 mm 0.00 in0.0 mm 0.00 in0.0 mm
05:15 AM 32.4°F0.2°C 17.6°F-8.0°C 54% 13.0 mph SE20.9 kmh SE 25.9 mph41.7 kmh 29.64 in1003.7 mb 0.00 in0.0 mm 0.00 in0.0 mm 0.00 in0.0 mm
05:10 AM 32.7°F0.4°C 17.9°F-7.8°C 54% 6.0 mph SSE9.7 kmh SSE 25.9 mph41.7 kmh 29.64 in1003.7 mb 0.00 in0.0 mm 0.00 in0.0 mm 0.00 in0.0 mm
05:05 AM 32.9°F0.5°C 18.1°F-7.7°C 54% 6.9 mph SE11.1 kmh SE 22.1 mph35.6 kmh 29.63 in1003.4 mb 0.00 in0.0 mm 0.00 in0.0 mm 0.00 in0.0 mm
05:00 AM 33.1°F0.6°C 18.3°F-7.6°C 54% 10.7 mph SE17.2 kmh SE 22.1 mph35.6 kmh 29.63 in1003.4 mb 0.00 in0.0 mm 0.00 in0.0 mm 0.00 in0.0 mm
04:55 AM 33.6°F0.9°C 18.8°F-7.3°C 54% 15.9 mph SE25.6 kmh SE 23.5 mph37.8 kmh 29.62 in1003.0 mb 0.00 in0.0 mm 0.00 in0.0 mm 0.00 in0.0 mm
04:50 AM 33.8°F1.0°C 18.9°F-7.3°C 54% 10.7 mph SE17.2 kmh SE 28.2 mph45.4 kmh 29.62 in1003.0 mb 0.00 in0.0 mm 0.00 in0.0 mm 0.00 in0.0 mm
04:45 AM 34.0°F1.1°C 19.1°F-7.2°C 54% 14.5 mph SE23.3 kmh SE 28.2 mph45.4 kmh 29.61 in1002.7 mb 0.00 in0.0 mm 0.00 in0.0 mm 0.00 in0.0 mm
04:40 AM 33.8°F1.0°C 18.9°F-7.3°C 54% 8.3 mph SE13.4 kmh SE 23.5 mph37.8 kmh 29.61 in1002.7 mb 0.00 in0.0 mm 0.00 in0.0 mm 0.00 in0.0 mm
04:35 AM 33.8°F1.0°C 18.9°F-7.3°C 54% 10.7 mph SE17.2 kmh SE 23.5 mph37.8 kmh 29.61 in1002.7 mb 0.00 in0.0 mm 0.00 in0.0 mm 0.00 in0.0 mm
04:30 AM 33.6°F0.9°C 18.8°F-7.3°C 54% 13.0 mph SE20.9 kmh SE 22.8 mph36.7 kmh 29.61 in1002.7 mb 0.00 in0.0 mm 0.00 in0.0 mm 0.00 in0.0 mm
04:25 AM 33.1°F0.6°C 18.3°F-7.6°C 54% 13.0 mph SSE20.9 kmh SSE 19.0 mph30.6 kmh 29.60 in1002.4 mb 0.00 in0.0 mm 0.00 in0.0 mm 0.00 in0.0 mm
04:20 AM 32.7°F0.4°C 17.9°F-7.8°C 54% 9.8 mph WSW15.8 kmh WSW 17.4 mph28.0 kmh 29.60 in1002.4 mb 0.00 in0.0 mm 0.00 in0.0 mm 0.00 in0.0 mm
04:15 AM 32.9°F0.5°C 18.1°F-7.7°C 54% 5.4 mph SSW8.7 kmh SSW 12.1 mph19.5 kmh 29.61 in1002.7 mb 0.00 in0.0 mm 0.00 in0.0 mm 0.00 in0.0 mm
04:10 AM 33.1°F0.6°C 18.3°F-7.6°C 54% 6.9 mph ESE11.1 kmh ESE 17.4 mph28.0 kmh 29.60 in1002.4 mb 0.00 in0.0 mm 0.00 in0.0 mm 0.00 in0.0 mm
04:05 AM 33.3°F0.7°C 18.4°F-7.6°C 54% 9.2 mph ESE14.8 kmh ESE 18.3 mph29.5 kmh 29.59 in1002.0 mb 0.00 in0.0 mm 0.00 in0.0 mm 0.00 in0.0 mm
04:00 AM 33.4°F0.8°C 18.6°F-7.4°C 54% 13.6 mph ESE21.9 kmh ESE 19.0 mph30.6 kmh 29.59 in1002.0 mb 0.00 in0.0 mm 0.00 in0.0 mm 0.00 in0.0 mm
03:55 AM 33.6°F0.9°C 18.8°F-7.3°C 54% 11.4 mph ESE18.3 kmh ESE 19.0 mph30.6 kmh 29.59 in1002.0 mb 0.00 in0.0 mm 0.00 in0.0 mm 0.00 in0.0 mm
03:50 AM 33.8°F1.0°C 18.9°F-7.3°C 54% 8.3 mph SE13.4 kmh SE 22.1 mph35.6 kmh 29.58 in1001.7 mb 0.00 in0.0 mm 0.00 in0.0 mm 0.00 in0.0 mm
03:45 AM 34.0°F1.1°C 19.1°F-7.2°C 54% 7.6 mph SE12.2 kmh SE 25.1 mph40.4 kmh 29.59 in1002.0 mb 0.00 in0.0 mm 0.00 in0.0 mm 0.00 in0.0 mm
03:40 AM 34.0°F1.1°C 19.1°F-7.2°C 54% 14.5 mph SE23.3 kmh SE 25.1 mph40.4 kmh 29.59 in1002.0 mb 0.00 in0.0 mm 0.00 in0.0 mm 0.00 in0.0 mm
03:35 AM 34.2°F1.2°C 19.3°F-7.1°C 54% 6.0 mph SSE9.7 kmh SSE 19.0 mph30.6 kmh 29.59 in1002.0 mb 0.00 in0.0 mm 0.00 in0.0 mm 0.00 in0.0 mm
03:30 AM 34.3°F1.3°C 19.4°F-7.0°C 54% 6.9 mph SSW11.1 kmh SSW 19.0 mph30.6 kmh 29.59 in1002.0 mb 0.00 in0.0 mm 0.00 in0.0 mm 0.00 in0.0 mm
03:25 AM 34.5°F1.4°C 19.6°F-6.9°C 54% 6.0 mph WSW9.7 kmh WSW 16.8 mph27.0 kmh 29.58 in1001.7 mb 0.00 in0.0 mm 0.00 in0.0 mm 0.00 in0.0 mm
03:20 AM 34.5°F1.4°C 19.6°F-6.9°C 54% 5.4 mph WSW8.7 kmh WSW 14.5 mph23.3 kmh 29.58 in1001.7 mb 0.00 in0.0 mm 0.00 in0.0 mm 0.00 in0.0 mm
03:15 AM 34.5°F1.4°C 19.6°F-6.9°C 54% 9.2 mph E14.8 kmh E 16.8 mph27.0 kmh 29.57 in1001.4 mb 0.00 in0.0 mm 0.00 in0.0 mm 0.00 in0.0 mm
03:10 AM 34.5°F1.4°C 19.6°F-6.9°C 54% 8.3 mph E13.4 kmh E 16.8 mph27.0 kmh 29.57 in1001.4 mb 0.00 in0.0 mm 0.00 in0.0 mm 0.00 in0.0 mm
03:05 AM 34.7°F1.5°C 19.8°F-6.8°C 54% 4.5 mph E7.2 kmh E 15.9 mph25.6 kmh 29.57 in1001.4 mb 0.00 in0.0 mm 0.00 in0.0 mm 0.00 in0.0 mm
03:00 AM 34.7°F1.5°C 19.8°F-6.8°C 54% 6.0 mph E9.7 kmh E 15.9 mph25.6 kmh 29.56 in1001.0 mb 0.00 in0.0 mm 0.00 in0.0 mm 0.00 in0.0 mm
02:55 AM 34.7°F1.5°C 19.8°F-6.8°C 54% 3.8 mph ESE6.1 kmh ESE 21.3 mph34.3 kmh 29.57 in1001.4 mb 0.00 in0.0 mm 0.00 in0.0 mm 0.00 in0.0 mm
02:50 AM 34.7°F1.5°C 19.8°F-6.8°C 54% 8.3 mph ESE13.4 kmh ESE 21.3 mph34.3 kmh 29.56 in1001.0 mb 0.00 in0.0 mm 0.00 in0.0 mm 0.00 in0.0 mm
02:45 AM 34.9°F1.6°C 19.9°F-6.7°C 54% 4.5 mph ESE7.2 kmh ESE 15.9 mph25.6 kmh 29.56 in1001.0 mb 0.00 in0.0 mm 0.00 in0.0 mm 0.00 in0.0 mm
02:35 AM 35.2°F1.8°C 20.3°F-6.5°C 54% 11.4 mph ESE18.3 kmh ESE 21.3 mph34.3 kmh 29.56 in1001.0 mb 0.00 in0.0 mm 0.00 in0.0 mm 0.00 in0.0 mm
02:30 AM 35.2°F1.8°C 20.3°F-6.5°C 54% 12.1 mph SE19.5 kmh SE 19.7 mph31.7 kmh 29.55 in1000.7 mb 0.00 in0.0 mm 0.00 in0.0 mm 0.00 in0.0 mm
02:25 AM 35.2°F1.8°C 20.3°F-6.5°C 54% 13.6 mph SE21.9 kmh SE 19.7 mph31.7 kmh 29.56 in1001.0 mb 0.00 in0.0 mm 0.00 in0.0 mm 0.00 in0.0 mm
02:20 AM 35.2°F1.8°C 20.3°F-6.5°C 54% 9.8 mph ESE15.8 kmh ESE 19.7 mph31.7 kmh 29.55 in1000.7 mb 0.00 in0.0 mm 0.00 in0.0 mm 0.00 in0.0 mm
02:15 AM 35.4°F1.9°C 20.5°F-6.4°C 54% 9.8 mph SE15.8 kmh SE 19.7 mph31.7 kmh 29.55 in1000.7 mb 0.00 in0.0 mm 0.00 in0.0 mm 0.00 in0.0 mm
02:10 AM 35.4°F1.9°C 20.5°F-6.4°C 54% 6.0 mph SE9.7 kmh SE 18.3 mph29.5 kmh 29.55 in1000.7 mb 0.00 in0.0 mm 0.00 in0.0 mm 0.00 in0.0 mm
02:05 AM 34.9°F1.6°C 19.9°F-6.7°C 54% 7.6 mph SE12.2 kmh SE 11.4 mph18.3 kmh 29.55 in1000.7 mb 0.00 in0.0 mm 0.00 in0.0 mm 0.00 in0.0 mm
02:00 AM 34.9°F1.6°C 19.9°F-6.7°C 54% 7.6 mph ESE12.2 kmh ESE 13.6 mph21.9 kmh 29.55 in1000.7 mb 0.00 in0.0 mm 0.00 in0.0 mm 0.00 in0.0 mm
01:55 AM 34.5°F1.4°C 19.6°F-6.9°C 54% 6.0 mph SE9.7 kmh SE 13.6 mph21.9 kmh 29.54 in1000.3 mb 0.00 in0.0 mm 0.00 in0.0 mm 0.00 in0.0 mm
01:50 AM 34.3°F1.3°C 19.4°F-7.0°C 54% 6.0 mph SE9.7 kmh SE 19.0 mph30.6 kmh 29.54 in1000.3 mb 0.00 in0.0 mm 0.00 in0.0 mm 0.00 in0.0 mm
01:45 AM 34.5°F1.4°C 19.6°F-6.9°C 54% 10.7 mph SE17.2 kmh SE 19.0 mph30.6 kmh 29.55 in1000.7 mb 0.00 in0.0 mm 0.00 in0.0 mm 0.00 in0.0 mm
01:40 AM 35.1°F1.7°C 20.1°F-6.6°C 54% 11.4 mph S18.3 kmh S 14.5 mph23.3 kmh 29.54 in1000.3 mb 0.00 in0.0 mm 0.00 in0.0 mm 0.00 in0.0 mm
01:35 AM 35.4°F1.9°C 20.5°F-6.4°C 54% 6.9 mph S11.1 kmh S 15.9 mph25.6 kmh 29.54 in1000.3 mb 0.00 in0.0 mm 0.00 in0.0 mm 0.00 in0.0 mm
01:30 AM 35.1°F1.7°C 20.1°F-6.6°C 54% 8.3 mph S13.4 kmh S 15.9 mph25.6 kmh 29.54 in1000.3 mb 0.00 in0.0 mm 0.00 in0.0 mm 0.00 in0.0 mm
01:25 AM 35.2°F1.8°C 20.3°F-6.5°C 54% 6.9 mph SE11.1 kmh SE 18.3 mph29.5 kmh 29.54 in1000.3 mb 0.00 in0.0 mm 0.00 in0.0 mm 0.00 in0.0 mm
01:20 AM 35.6°F2.0°C 20.6°F-6.3°C 54% 8.3 mph SE13.4 kmh SE 18.3 mph29.5 kmh 29.53 in1000.0 mb 0.00 in0.0 mm 0.00 in0.0 mm 0.00 in0.0 mm
01:15 AM 35.8°F2.1°C 20.8°F-6.2°C 54% 9.2 mph E14.8 kmh E 15.2 mph24.5 kmh 29.53 in1000.0 mb 0.00 in0.0 mm 0.00 in0.0 mm 0.00 in0.0 mm
01:10 AM 36.3°F2.4°C 21.3°F-5.9°C 54% 10.7 mph E17.2 kmh E 15.2 mph24.5 kmh 29.53 in1000.0 mb 0.00 in0.0 mm 0.00 in0.0 mm 0.00 in0.0 mm
01:05 AM 36.7°F2.6°C 21.6°F-5.8°C 54% 4.5 mph E7.2 kmh E 17.4 mph28.0 kmh 29.53 in1000.0 mb 0.00 in0.0 mm 0.00 in0.0 mm 0.00 in0.0 mm
01:00 AM 36.7°F2.6°C 21.6°F-5.8°C 54% 9.2 mph ESE14.8 kmh ESE 17.4 mph28.0 kmh 29.53 in1000.0 mb 0.00 in0.0 mm 0.00 in0.0 mm 0.00 in0.0 mm
12:55 AM 36.5°F2.5°C 21.5°F-5.8°C 54% 7.6 mph ESE12.2 kmh ESE 13.6 mph21.9 kmh 29.52 in999.7 mb 0.00 in0.0 mm 0.00 in0.0 mm 0.00 in0.0 mm
12:50 AM 36.7°F2.6°C 21.6°F-5.8°C 54% 7.6 mph E12.2 kmh E 10.7 mph17.2 kmh 29.52 in999.7 mb 0.00 in0.0 mm 0.00 in0.0 mm 0.00 in0.0 mm
12:45 AM 36.9°F2.7°C 21.8°F-5.7°C 54% 6.0 mph ESE9.7 kmh ESE 16.8 mph27.0 kmh 29.52 in999.7 mb 0.00 in0.0 mm 0.00 in0.0 mm 0.00 in0.0 mm
12:40 AM 37.2°F2.9°C 22.1°F-5.5°C 54% 6.9 mph SE11.1 kmh SE 16.8 mph27.0 kmh 29.52 in999.7 mb 0.00 in0.0 mm 0.00 in0.0 mm 0.00 in0.0 mm
12:35 AM 37.2°F2.9°C 22.1°F-5.5°C 54% 9.2 mph SE14.8 kmh SE 17.4 mph28.0 kmh 29.52 in999.7 mb 0.00 in0.0 mm 0.00 in0.0 mm 0.00 in0.0 mm
12:30 AM 37.4°F3.0°C 22.3°F-5.4°C 54% 6.9 mph SE11.1 kmh SE 21.3 mph34.3 kmh 29.52 in999.7 mb 0.00 in0.0 mm 0.00 in0.0 mm 0.00 in0.0 mm
12:25 AM 37.6°F3.1°C 22.5°F-5.3°C 54% 6.9 mph SE11.1 kmh SE 24.4 mph39.3 kmh 29.52 in999.7 mb 0.00 in0.0 mm 0.00 in0.0 mm 0.00 in0.0 mm
12:20 AM 37.6°F3.1°C 22.5°F-5.3°C 54% 9.8 mph ESE15.8 kmh ESE 24.4 mph39.3 kmh 29.52 in999.7 mb 0.00 in0.0 mm 0.00 in0.0 mm 0.00 in0.0 mm
12:15 AM 37.6°F3.1°C 22.5°F-5.3°C 54% 6.0 mph ESE9.7 kmh ESE 10.7 mph17.2 kmh 29.52 in999.7 mb 0.00 in0.0 mm 0.00 in0.0 mm 0.00 in0.0 mm
12:10 AM 37.9°F3.3°C 22.8°F-5.1°C 54% 7.6 mph E12.2 kmh E 10.7 mph17.2 kmh 29.52 in999.7 mb 0.00 in0.0 mm 0.00 in0.0 mm 0.00 in0.0 mm
12:05 AM 38.5°F3.6°C 23.3°F-4.8°C 54% 6.0 mph E9.7 kmh E 9.8 mph15.8 kmh 29.52 in999.7 mb 0.00 in0.0 mm 0.00 in0.0 mm 0.00 in0.0 mm
12:00 AM 38.5°F3.6°C 23.3°F-4.8°C 54% 6.0 mph SE9.7 kmh SE 13.0 mph20.9 kmh 29.51 in999.3 mb 0.00 in0.0 mm 0.00 in0.0 mm 0.00 in0.0 mm